createdAt,value
2023-05-03T00:01:34.506Z,6.78
2023-05-03T00:04:02.185Z,6.75
2023-05-03T00:06:30.256Z,6.69
2023-05-03T00:08:59.226Z,6.82
2023-05-03T00:11:27.356Z,6.62
2023-05-03T00:13:55.042Z,6.51
2023-05-03T00:16:23.472Z,6.50
2023-05-03T00:18:51.207Z,6.46
2023-05-03T00:21:19.196Z,6.50
2023-05-03T00:23:46.825Z,6.38
2023-05-03T00:26:16.370Z,6.40
2023-05-03T00:28:44.188Z,6.38
2023-05-03T00:31:12.492Z,6.32
2023-05-03T00:33:40.674Z,6.15
2023-05-03T00:36:09.920Z,6.40
2023-05-03T00:38:38.568Z,6.25
2023-05-03T00:41:07.109Z,6.39
2023-05-03T00:43:38.301Z,6.39
2023-05-03T00:46:16.104Z,6.36
2023-05-03T00:48:46.122Z,6.30
2023-05-03T00:51:16.270Z,6.33
2023-05-03T00:53:44.293Z,6.41
2023-05-03T00:56:12.881Z,6.05
2023-05-03T00:58:42.003Z,6.34
2023-05-03T01:01:10.308Z,6.41
2023-05-03T01:03:42.211Z,6.35
2023-05-03T01:06:19.202Z,6.45
2023-05-03T01:08:53.217Z,6.45
2023-05-03T01:11:25.417Z,6.37
2023-05-03T01:14:00.725Z,6.47
2023-05-03T01:16:36.498Z,6.50
2023-05-03T01:19:08.413Z,6.54
2023-05-03T01:21:38.820Z,6.65
2023-05-03T01:24:12.422Z,6.68
2023-05-03T01:26:42.062Z,6.81
2023-05-03T01:29:09.737Z,7.01
2023-05-03T01:31:44.789Z,6.94
2023-05-03T01:34:22.937Z,6.89
2023-05-03T01:36:51.913Z,6.92
2023-05-03T01:39:23.708Z,6.88
2023-05-03T01:41:54.229Z,6.78
2023-05-03T01:44:23.793Z,6.74
2023-05-03T01:46:51.481Z,6.74
2023-05-03T01:49:19.423Z,6.56
2023-05-03T01:51:47.075Z,6.57
2023-05-03T01:54:15.077Z,6.47
2023-05-03T01:56:42.812Z,6.47
2023-05-03T01:59:11.816Z,6.31
2023-05-03T02:01:40.395Z,6.22
2023-05-03T02:04:08.687Z,6.20
2023-05-03T02:06:37.424Z,6.13
2023-05-03T02:09:05.131Z,6.00
2023-05-03T02:11:32.751Z,6.03
2023-05-03T02:14:00.925Z,6.07
2023-05-03T02:16:30.059Z,6.12
2023-05-03T02:18:59.446Z,6.17
2023-05-03T02:21:33.290Z,6.14
2023-05-03T02:24:01.003Z,6.06
2023-05-03T02:26:30.098Z,6.03
2023-05-03T02:28:58.030Z,5.99
2023-05-03T02:31:28.193Z,5.87
2023-05-03T02:33:59.151Z,5.90
2023-05-03T02:36:27.665Z,5.87
2023-05-03T02:38:55.771Z,5.76
2023-05-03T02:41:23.402Z,5.73
2023-05-03T02:43:52.138Z,5.69
2023-05-03T02:46:19.759Z,5.68
2023-05-03T02:48:47.516Z,5.64
2023-05-03T02:51:16.492Z,5.57
2023-05-03T02:53:44.484Z,5.56
2023-05-03T02:56:12.161Z,5.60
2023-05-03T02:58:40.163Z,5.47
2023-05-03T03:01:08.416Z,5.36
2023-05-03T03:03:36.190Z,5.45
2023-05-03T03:06:04.147Z,5.31
2023-05-03T03:08:33.189Z,5.31
2023-05-03T03:11:04.586Z,5.33
2023-05-03T03:13:33.599Z,5.26
2023-05-03T03:16:03.581Z,5.33
2023-05-03T03:18:31.769Z,5.31
2023-05-03T03:20:59.526Z,5.22
2023-05-03T03:23:27.241Z,5.16
2023-05-03T03:25:56.652Z,4.91
2023-05-03T03:28:25.984Z,5.11
2023-05-03T03:30:54.725Z,4.96
2023-05-03T03:33:26.648Z,4.85
2023-05-03T03:35:59.461Z,4.80
2023-05-03T03:38:33.534Z,4.94
2023-05-03T03:41:06.841Z,4.84
2023-05-03T03:43:35.431Z,4.96
2023-05-03T03:46:08.924Z,5.06
2023-05-03T03:48:36.827Z,5.12
2023-05-03T03:51:04.659Z,5.10
2023-05-03T03:53:39.281Z,4.96
2023-05-03T03:56:09.003Z,5.05
2023-05-03T03:58:36.860Z,4.98
2023-05-03T04:01:07.268Z,4.91
2023-05-03T04:03:35.453Z,4.91
2023-05-03T04:06:03.178Z,4.85
2023-05-03T04:08:31.870Z,4.83
2023-05-03T04:10:59.730Z,4.95
2023-05-03T04:13:28.708Z,4.93
2023-05-03T04:15:57.942Z,4.95
2023-05-03T04:18:26.801Z,4.98
2023-05-03T04:20:56.786Z,5.02
2023-05-03T04:23:24.511Z,5.07
2023-05-03T04:25:52.554Z,5.08
2023-05-03T04:28:22.018Z,5.05
2023-05-03T04:30:53.441Z,5.02
2023-05-03T04:33:25.703Z,5.14
2023-05-03T04:35:55.332Z,5.18
2023-05-03T04:38:23.243Z,5.26
2023-05-03T04:40:51.671Z,5.31
2023-05-03T04:43:19.473Z,5.27
2023-05-03T04:45:48.583Z,5.27
2023-05-03T04:48:22.123Z,5.42
2023-05-03T04:50:49.779Z,5.50
2023-05-03T04:53:20.092Z,5.63
2023-05-03T04:55:54.229Z,5.58
2023-05-03T04:58:22.718Z,5.61
2023-05-03T05:00:51.055Z,5.62
2023-05-03T05:03:27.583Z,5.74
2023-05-03T05:05:55.265Z,5.71
2023-05-03T05:08:22.939Z,5.90
2023-05-03T05:10:55.958Z,6.16
2023-05-03T05:13:28.083Z,6.19
2023-05-03T05:15:55.986Z,6.15
2023-05-03T05:18:23.707Z,6.18
2023-05-03T05:20:54.588Z,6.20
2023-05-03T05:23:23.403Z,6.33
2023-05-03T05:25:53.927Z,6.26
2023-05-03T05:28:22.711Z,6.28
2023-05-03T05:30:50.630Z,6.39
2023-05-03T05:33:19.280Z,6.55
2023-05-03T05:35:49.573Z,6.54
2023-05-03T05:38:21.930Z,6.64
2023-05-03T05:40:51.841Z,6.80
2023-05-03T05:43:20.477Z,6.91
2023-05-03T05:45:48.541Z,7.06
2023-05-03T05:48:16.803Z,7.18
2023-05-03T05:50:45.754Z,7.40
2023-05-03T05:53:15.746Z,7.36
2023-05-03T05:55:51.709Z,7.37
2023-05-03T05:58:19.919Z,7.74
2023-05-03T06:00:51.993Z,8.15
2023-05-03T06:03:20.212Z,8.43
2023-05-03T06:05:50.681Z,8.45
2023-05-03T06:08:18.590Z,8.69
2023-05-03T06:10:46.213Z,8.84
2023-05-03T06:13:15.261Z,8.90
2023-05-03T06:15:43.781Z,8.95
2023-05-03T06:18:11.948Z,9.04
2023-05-03T06:20:39.616Z,9.19
2023-05-03T06:23:07.769Z,9.22
2023-05-03T06:25:38.067Z,9.29
2023-05-03T06:28:05.843Z,9.25
2023-05-03T06:30:37.576Z,9.35
2023-05-03T06:33:13.580Z,9.51
2023-05-03T06:35:43.753Z,9.62
2023-05-03T06:38:12.262Z,9.63
2023-05-03T06:40:41.247Z,9.74
2023-05-03T06:43:09.126Z,9.89
2023-05-03T06:45:45.140Z,10.10
2023-05-03T06:48:13.108Z,10.16
2023-05-03T06:50:41.243Z,10.26
2023-05-03T06:53:09.683Z,10.41
2023-05-03T06:55:37.267Z,10.64
2023-05-03T06:58:10.306Z,10.79
2023-05-03T07:00:39.096Z,10.98
2023-05-03T07:03:08.283Z,11.07
2023-05-03T07:05:36.662Z,11.00
2023-05-03T07:08:04.593Z,11.28
2023-05-03T07:10:55.166Z,11.58
2023-05-03T07:13:22.801Z,11.76
2023-05-03T07:15:51.460Z,12.29
2023-05-03T07:18:20.471Z,12.55
2023-05-03T07:20:48.744Z,12.74
2023-05-03T07:23:16.985Z,13.19
2023-05-03T07:25:45.634Z,13.43
2023-05-03T07:28:13.636Z,13.91
2023-05-03T07:30:41.352Z,14.25
2023-05-03T07:33:09.421Z,14.37
2023-05-03T07:35:38.390Z,15.22
2023-05-03T07:38:06.515Z,15.62
2023-05-03T07:40:34.881Z,14.98
2023-05-03T07:43:03.149Z,15.19
2023-05-03T07:45:31.699Z,15.18
2023-05-03T07:47:59.530Z,15.38
2023-05-03T07:50:27.548Z,15.55
2023-05-03T07:52:56.524Z,15.20
2023-05-03T07:55:25.203Z,15.18
2023-05-03T07:57:58.279Z,15.11
2023-05-03T08:00:26.265Z,14.94
2023-05-03T08:02:54.149Z,14.71
2023-05-03T08:05:23.606Z,14.80
2023-05-03T08:07:52.560Z,14.40
2023-05-03T08:10:22.249Z,14.70
2023-05-03T08:12:53.341Z,14.70
2023-05-03T08:15:20.947Z,14.50
2023-05-03T08:17:49.405Z,14.76
2023-05-03T08:20:17.007Z,14.90
2023-05-03T08:22:45.616Z,14.89
2023-05-03T08:25:13.283Z,14.79
2023-05-03T08:27:42.548Z,14.87
2023-05-03T08:30:10.893Z,15.10
2023-05-03T08:32:38.479Z,14.93
2023-05-03T08:35:07.312Z,14.87
2023-05-03T08:37:40.121Z,14.84
2023-05-03T08:40:10.011Z,14.84
2023-05-03T08:42:42.425Z,15.11
2023-05-03T08:45:12.847Z,15.14
2023-05-03T08:47:41.927Z,15.20
2023-05-03T08:50:11.456Z,14.97
2023-05-03T08:52:41.439Z,15.09
2023-05-03T08:55:10.770Z,15.69
2023-05-03T08:57:38.481Z,15.59
2023-05-03T09:00:10.828Z,15.93
2023-05-03T09:02:39.943Z,15.93
2023-05-03T09:05:35.963Z,16.25
2023-05-03T09:08:05.297Z,16.52
2023-05-03T09:10:33.986Z,16.15
2023-05-03T09:13:03.161Z,15.94
2023-05-03T09:15:32.406Z,16.31
2023-05-03T09:18:12.607Z,16.02
2023-05-03T09:20:41.834Z,16.71
2023-05-03T09:23:10.470Z,16.86
2023-05-03T09:25:43.185Z,17.05
2023-05-03T09:28:10.990Z,17.33
2023-05-03T09:30:40.347Z,17.31
2023-05-03T09:33:08.482Z,17.43
2023-05-03T09:35:36.130Z,17.20
2023-05-03T09:38:03.990Z,17.43
2023-05-03T09:40:31.733Z,17.27
2023-05-03T09:43:06.466Z,17.41
2023-05-03T09:45:34.335Z,17.33
2023-05-03T09:48:05.112Z,17.15
2023-05-03T09:50:33.847Z,17.35
2023-05-03T09:53:05.850Z,17.10
2023-05-03T09:55:34.658Z,16.91
2023-05-03T09:58:06.701Z,17.21
2023-05-03T10:00:38.377Z,17.22
2023-05-03T10:03:10.517Z,17.14
2023-05-03T10:05:45.729Z,16.74
2023-05-03T10:08:19.421Z,17.00
2023-05-03T10:10:51.054Z,17.34
2023-05-03T10:13:20.044Z,17.45
2023-05-03T10:15:49.933Z,17.12
2023-05-03T10:18:21.652Z,17.67
2023-05-03T10:20:54.732Z,16.99
2023-05-03T10:23:22.361Z,17.36
2023-05-03T10:26:15.118Z,17.78
2023-05-03T10:28:43.916Z,17.97
2023-05-03T10:31:46.544Z,18.01
2023-05-03T10:34:26.037Z,17.86
2023-05-03T10:36:54.257Z,17.94
2023-05-03T10:39:22.367Z,18.05
2023-05-03T10:42:00.348Z,18.07
2023-05-03T10:44:29.320Z,17.75
2023-05-03T10:46:57.014Z,18.08
2023-05-03T10:49:27.211Z,18.22
2023-05-03T10:51:56.079Z,18.30
2023-05-03T10:54:24.515Z,18.60
2023-05-03T10:56:54.426Z,18.37
2023-05-03T10:59:23.255Z,18.56
2023-05-03T11:01:53.375Z,18.66
2023-05-03T11:04:34.852Z,18.49
2023-05-03T11:07:02.914Z,18.39
2023-05-03T11:09:36.971Z,18.46
2023-05-03T11:12:05.979Z,18.61
2023-05-03T11:14:33.594Z,18.64
2023-05-03T11:17:01.923Z,18.86
2023-05-03T11:19:31.264Z,18.94
2023-05-03T11:21:58.971Z,19.09
2023-05-03T11:24:26.792Z,18.93
2023-05-03T11:26:54.473Z,18.51
2023-05-03T11:29:22.433Z,18.71
2023-05-03T11:31:51.207Z,18.99
2023-05-03T11:34:19.345Z,19.04
2023-05-03T11:36:49.576Z,19.28
2023-05-03T11:39:18.963Z,19.64
2023-05-03T11:42:03.213Z,18.71
2023-05-03T11:44:31.265Z,18.45
2023-05-03T11:46:59.662Z,18.79
2023-05-03T11:49:27.508Z,19.23
2023-05-03T11:51:56.817Z,19.54
2023-05-03T11:54:27.338Z,19.60
2023-05-03T11:56:57.505Z,19.48
2023-05-03T11:59:35.920Z,19.39
2023-05-03T12:02:04.229Z,19.26
2023-05-03T12:04:32.818Z,19.03
2023-05-03T12:07:03.411Z,19.10
2023-05-03T12:09:32.511Z,19.51
2023-05-03T12:12:02.405Z,19.75
2023-05-03T12:14:51.359Z,19.68
2023-05-03T12:17:36.879Z,19.78
2023-05-03T12:22:59.127Z,19.44
2023-05-03T12:25:29.189Z,19.83
2023-05-03T12:28:18.545Z,20.04
2023-05-03T12:30:48.789Z,20.21
2023-05-03T12:33:21.126Z,19.68
2023-05-03T12:35:53.452Z,19.68
2023-05-03T12:38:25.076Z,19.97
2023-05-03T12:40:54.825Z,19.99
2023-05-03T12:43:22.781Z,20.24
2023-05-03T12:46:02.067Z,20.26
2023-05-03T12:48:38.507Z,20.47
2023-05-03T12:51:19.151Z,20.16
2023-05-03T12:53:54.445Z,20.44
2023-05-03T12:56:24.781Z,20.16
2023-05-03T12:59:14.928Z,20.20
2023-05-03T13:06:44.862Z,20.55
2023-05-03T13:09:20.571Z,20.83
2023-05-03T13:11:50.974Z,20.85
2023-05-03T13:14:18.990Z,20.70
2023-05-03T13:16:46.822Z,20.80
2023-05-03T13:19:14.823Z,20.56
2023-05-03T13:21:42.606Z,20.95
2023-05-03T13:24:10.313Z,20.72
2023-05-03T13:26:39.816Z,20.63
2023-05-03T13:29:07.428Z,20.58
2023-05-03T13:31:35.559Z,20.81
2023-05-03T13:34:03.148Z,21.00
2023-05-03T13:36:33.559Z,21.06
2023-05-03T13:39:01.851Z,21.08
2023-05-03T13:41:29.605Z,20.85
2023-05-03T13:43:58.510Z,20.71
2023-05-03T13:46:26.244Z,20.48
2023-05-03T13:48:56.706Z,20.76
2023-05-03T13:51:25.601Z,20.73
2023-05-03T13:53:53.350Z,20.69
2023-05-03T13:56:21.862Z,20.98
2023-05-03T13:58:49.611Z,20.91
2023-05-03T14:01:19.295Z,20.78
2023-05-03T14:03:47.258Z,20.97
2023-05-03T14:06:15.188Z,20.92
2023-05-03T14:08:43.078Z,20.85
2023-05-03T14:11:13.874Z,20.84
2023-05-03T14:13:55.607Z,20.14
2023-05-03T14:18:58.388Z,20.93
2023-05-03T14:21:26.369Z,20.90
2023-05-03T14:23:55.854Z,20.98
2023-05-03T14:26:26.237Z,21.02
2023-05-03T14:28:53.997Z,20.87
2023-05-03T14:31:22.456Z,21.18
2023-05-03T14:33:51.986Z,21.17
2023-05-03T14:36:19.801Z,21.15
2023-05-03T14:38:47.820Z,20.90
2023-05-03T14:41:15.585Z,21.17
2023-05-03T14:43:43.396Z,21.00
2023-05-03T14:46:11.301Z,20.79
2023-05-03T14:48:39.263Z,20.77
2023-05-03T14:51:08.432Z,20.83
2023-05-03T14:53:36.797Z,20.82
2023-05-03T14:56:04.953Z,20.79
2023-05-03T14:58:33.485Z,20.88
2023-05-03T15:01:01.209Z,20.39
2023-05-03T15:03:29.066Z,20.87
2023-05-03T15:05:57.490Z,20.95
2023-05-03T15:08:27.506Z,20.95
2023-05-03T15:10:55.396Z,20.89
2023-05-03T15:13:24.213Z,20.89
2023-05-03T15:15:52.332Z,20.78
2023-05-03T15:18:20.355Z,20.68
2023-05-03T15:20:48.213Z,20.94
2023-05-03T15:23:15.947Z,20.96
2023-05-03T15:25:44.924Z,20.75
2023-05-03T15:28:12.994Z,20.53
2023-05-03T15:30:40.816Z,20.58
2023-05-03T15:33:11.079Z,20.53
2023-05-03T15:35:41.242Z,20.50
2023-05-03T15:38:09.858Z,20.39
2023-05-03T15:40:37.736Z,20.61
2023-05-03T15:43:06.911Z,20.52
2023-05-03T15:45:34.667Z,20.33
2023-05-03T15:48:02.968Z,20.44
2023-05-03T15:50:30.843Z,20.65
2023-05-03T15:52:58.791Z,20.48
2023-05-03T15:55:26.899Z,20.49
2023-05-03T15:57:57.075Z,20.35
2023-05-03T16:00:28.158Z,20.21
2023-05-03T16:02:57.261Z,20.23
2023-05-03T16:05:25.370Z,20.11
2023-05-03T16:07:53.163Z,20.09
2023-05-03T16:10:23.430Z,20.27
2023-05-03T16:12:52.481Z,20.06
2023-05-03T16:15:20.534Z,20.21
2023-05-03T16:17:49.979Z,20.14
2023-05-03T16:20:17.863Z,20.13
2023-05-03T16:22:47.946Z,20.17
2023-05-03T16:25:16.408Z,20.21
2023-05-03T16:27:44.707Z,20.17
2023-05-03T16:30:13.201Z,20.22
2023-05-03T16:32:41.639Z,20.26
2023-05-03T16:35:11.036Z,20.41
2023-05-03T16:37:38.788Z,20.78
2023-05-03T16:40:11.696Z,21.59
2023-05-03T16:42:40.146Z,22.70
2023-05-03T16:45:10.606Z,22.97
2023-05-03T16:47:38.872Z,23.73
2023-05-03T16:50:08.632Z,23.97
2023-05-03T16:52:40.698Z,24.38
2023-05-03T16:55:09.696Z,23.87
2023-05-03T16:57:37.805Z,24.06
2023-05-03T17:00:09.708Z,24.54
2023-05-03T17:02:38.202Z,24.24
2023-05-03T17:05:07.758Z,23.83
2023-05-03T17:07:36.966Z,22.41
2023-05-03T17:10:07.553Z,20.74
2023-05-03T17:12:35.974Z,19.90
2023-05-03T17:15:04.061Z,18.88
2023-05-03T17:17:32.632Z,18.51
2023-05-03T17:20:00.659Z,18.10
2023-05-03T17:22:28.824Z,18.15
2023-05-03T17:24:58.237Z,17.75
2023-05-03T17:27:27.901Z,17.41
2023-05-03T17:29:57.439Z,17.37
2023-05-03T17:32:25.940Z,17.20
2023-05-03T17:34:53.649Z,17.11
2023-05-03T17:37:23.670Z,16.92
2023-05-03T17:39:51.543Z,16.71
2023-05-03T17:42:20.890Z,16.45
2023-05-03T17:44:51.902Z,16.33
2023-05-03T17:47:21.117Z,16.26
2023-05-03T17:49:49.426Z,16.01
2023-05-03T17:52:17.794Z,16.06
2023-05-03T17:54:46.144Z,15.71
2023-05-03T17:57:14.610Z,15.51
2023-05-03T17:59:42.386Z,15.36
2023-05-03T18:02:13.701Z,15.59
2023-05-03T18:04:41.643Z,15.38
2023-05-03T18:07:09.760Z,15.13
2023-05-03T18:09:38.132Z,14.90
2023-05-03T18:12:06.499Z,14.55
2023-05-03T18:14:35.944Z,14.39
2023-05-03T18:17:03.998Z,14.16
2023-05-03T18:19:33.169Z,13.94
2023-05-03T18:22:01.605Z,13.76
2023-05-03T18:24:29.378Z,13.56
2023-05-03T18:26:58.707Z,13.37
2023-05-03T18:29:26.493Z,13.10
2023-05-03T18:31:54.982Z,13.14
2023-05-03T18:34:22.852Z,12.92
2023-05-03T18:36:52.329Z,12.85
2023-05-03T18:39:20.428Z,12.62
2023-05-03T18:41:48.099Z,12.43
2023-05-03T18:44:16.100Z,12.21
2023-05-03T18:46:44.324Z,12.08
2023-05-03T18:49:12.829Z,11.92
2023-05-03T18:51:40.964Z,11.86
2023-05-03T18:54:10.499Z,11.26
2023-05-03T18:56:38.234Z,11.54
2023-05-03T18:59:06.635Z,11.49
2023-05-03T19:01:34.570Z,11.29
2023-05-03T19:04:04.683Z,11.21
2023-05-03T19:06:32.544Z,11.16
2023-05-03T19:09:00.421Z,11.08
2023-05-03T19:11:29.493Z,10.93
2023-05-03T19:13:57.325Z,10.85
2023-05-03T19:16:25.080Z,10.73
2023-05-03T19:18:52.954Z,10.68
2023-05-03T19:21:21.378Z,10.55
2023-05-03T19:23:49.041Z,10.51
2023-05-03T19:26:17.093Z,10.26
2023-05-03T19:28:46.712Z,10.35
2023-05-03T19:31:14.577Z,10.37
2023-05-03T19:33:42.353Z,10.31
2023-05-03T19:36:13.786Z,10.31
2023-05-03T19:38:41.574Z,10.30
2023-05-03T19:41:12.239Z,10.46
2023-05-03T19:43:41.181Z,10.40
2023-05-03T19:46:10.554Z,10.57
2023-05-03T19:48:38.835Z,10.92
2023-05-03T19:51:06.758Z,11.18
2023-05-03T19:53:34.912Z,11.12
2023-05-03T19:56:03.853Z,11.21
2023-05-03T19:58:32.324Z,11.19
2023-05-03T20:01:00.472Z,11.16
2023-05-03T20:03:29.984Z,11.27
2023-05-03T20:05:59.011Z,11.49
2023-05-03T20:08:27.075Z,11.78
2023-05-03T20:10:56.510Z,11.81
2023-05-03T20:13:26.173Z,11.68
2023-05-03T20:15:54.308Z,11.71
2023-05-03T20:18:22.156Z,11.67
2023-05-03T20:20:51.514Z,11.61
2023-05-03T20:23:19.453Z,11.49
2023-05-03T20:25:47.336Z,11.61
2023-05-03T20:28:15.269Z,11.66
2023-05-03T20:30:43.006Z,11.59
2023-05-03T20:33:10.905Z,11.63
2023-05-03T20:35:38.946Z,11.65
2023-05-03T20:38:08.206Z,11.62
2023-05-03T20:40:35.897Z,11.61
2023-05-03T20:43:04.394Z,11.69
2023-05-03T20:45:32.830Z,11.67
2023-05-03T20:48:00.698Z,11.60
2023-05-03T20:50:28.317Z,11.65
2023-05-03T20:52:56.864Z,11.63
2023-05-03T20:55:25.922Z,11.66
2023-05-03T20:57:53.821Z,11.63
2023-05-03T21:00:22.372Z,11.57
2023-05-03T21:02:53.369Z,11.46
2023-05-03T21:05:22.212Z,11.49
2023-05-03T21:07:50.088Z,11.48
2023-05-03T21:10:18.265Z,11.08
2023-05-03T21:12:47.634Z,11.52
2023-05-03T21:15:15.928Z,11.46
2023-05-03T21:17:43.588Z,11.41
2023-05-03T21:20:12.231Z,11.35
2023-05-03T21:22:39.925Z,11.26
2023-05-03T21:25:08.877Z,11.23
2023-05-03T21:27:37.047Z,11.14
2023-05-03T21:30:07.687Z,11.25
2023-05-03T21:32:35.519Z,11.17
2023-05-03T21:35:03.664Z,11.10
2023-05-03T21:37:31.395Z,11.10
2023-05-03T21:40:02.523Z,11.10
2023-05-03T21:42:30.788Z,10.97
2023-05-03T21:44:59.314Z,11.05
2023-05-03T21:47:28.499Z,11.11
2023-05-03T21:49:56.519Z,11.01
2023-05-03T21:52:24.305Z,10.96
2023-05-03T21:54:53.452Z,11.05
2023-05-03T21:57:21.971Z,11.01
2023-05-03T21:59:50.253Z,11.00
2023-05-03T22:02:18.531Z,10.82
2023-05-03T22:04:48.675Z,11.03
2023-05-03T22:07:16.861Z,10.70
2023-05-03T22:09:46.959Z,11.09
2023-05-03T22:12:23.372Z,11.11
2023-05-03T22:14:52.358Z,11.25
2023-05-03T22:17:20.599Z,11.16
2023-05-03T22:19:50.464Z,11.06
2023-05-03T22:22:18.670Z,10.94
2023-05-03T22:24:46.390Z,10.93
2023-05-03T22:27:14.184Z,10.91
2023-05-03T22:29:42.738Z,10.80
2023-05-03T22:32:10.477Z,11.08
2023-05-03T22:34:38.604Z,11.19
2023-05-03T22:37:07.584Z,11.27
2023-05-03T22:39:35.703Z,11.44
2023-05-03T22:42:03.429Z,11.47
2023-05-03T22:44:33.730Z,11.35
2023-05-03T22:47:01.477Z,11.32
2023-05-03T22:49:29.490Z,11.29
2023-05-03T22:51:57.986Z,11.37
2023-05-03T22:54:27.086Z,11.38
2023-05-03T22:56:55.318Z,11.31
2023-05-03T22:59:22.962Z,11.22
2023-05-03T23:01:51.144Z,11.24
2023-05-03T23:04:18.840Z,11.20
2023-05-03T23:06:46.459Z,11.24
2023-05-03T23:09:15.349Z,11.24
2023-05-03T23:11:44.309Z,11.37
2023-05-03T23:14:12.398Z,11.38
2023-05-03T23:16:40.400Z,11.42
2023-05-03T23:19:08.186Z,11.51
2023-05-03T23:21:36.171Z,11.60
2023-05-03T23:24:03.831Z,11.47
2023-05-03T23:26:32.182Z,11.52
2023-05-03T23:29:02.218Z,11.52
2023-05-03T23:31:31.488Z,11.53
2023-05-03T23:34:00.783Z,11.61
2023-05-03T23:36:28.490Z,11.69
2023-05-03T23:38:56.791Z,11.58
2023-05-03T23:41:24.415Z,11.64
2023-05-03T23:43:52.300Z,11.56
2023-05-03T23:46:21.698Z,11.55
2023-05-03T23:48:49.431Z,11.58
2023-05-03T23:51:17.614Z,11.54
2023-05-03T23:53:45.197Z,11.57
2023-05-03T23:56:13.602Z,11.48
2023-05-03T23:58:41.352Z,11.06
